Hand 'n' Hand — WCW5960 — position and weather

sailwx.info

Track history (hours):
 
Tides and Currents Weather Stations Pressure Air Temp Water Temp Dewpoint Dewpoint Depression Visibility Wind Speed Wind Dir Waves Ship Positions

Hand 'n' Hand

Owner: HAND, DONALD E, PORTLAND, OR. More information available from US FCC via Universal Licensing System.

Last reported at 2018-Feb-17 22:22 UTC. Time now 2018-Feb-20 01:35 UTC.
Position N 36°43' W 076°14'.

Length 160 m; draft 0.23 m.

Type: Other ship. MMSI: 3011.

Date/timePositionNaut miles runAvg speedWind from/ knotsBaromVisibWave heightAir tempDewpointWater temp
2018-Feb-17 22:22N 36°43' W 076°14'1 2.3
2018-Feb-17 22:01N 36°43' W 076°15'1 0.5
2018-Feb-17 20:35N 36°44' W 076°15'0 1.2
2018-Feb-17 20:19N 36°44' W 076°16'2 3.1
2018-Feb-17 19:46N 36°44' W 076°18'1 3.0
2018-Feb-17 19:30N 36°45' W 076°18'1 1.4
2018-Feb-17 19:00N 36°46' W 076°18'1 2.3
2018-Feb-17 18:30N 36°47' W 076°19'2 4.2
2018-Feb-17 18:00N 36°49' W 076°17'2 5.0
2018-Feb-17 17:30N 36°51' W 076°18'2 3.1
2018-Feb-17 17:00N 36°52' W 076°20'0 0.9
2018-Feb-17 16:30N 36°52' W 076°20'0 0.2
2018-Feb-17 15:48N 36°52' W 076°20'0 0.0
2018-Feb-17 14:48N 36°52' W 076°20'0 0.0
2018-Feb-17 14:28N 36°52' W 076°20'117 4.2
2018-Feb-16 10:56N 38°49' W 076°26'2 5.4
2018-Feb-16 10:30N 38°51' W 076°25'3 5.2
2018-Feb-16 10:00N 38°53' W 076°24'3 5.2
2018-Feb-16 09:25N 38°56' W 076°24'33 5.7
2018-Feb-16 03:36N 39°25' W 076°02'1 5.4
2018-Feb-16 03:28N 39°26' W 076°01'3 5.2
2018-Feb-16 02:59N 39°27' W 075°59'2 4.9
2018-Feb-16 02:29N 39°29' W 075°57'2 4.5
2018-Feb-16 02:00N 39°30' W 075°54'2 4.2
2018-Feb-16 01:30N 39°32' W 075°52'8 3.3
2018-Feb-15 23:06N 39°33' W 075°42'0 3.5
2018-Feb-15 23:00N 39°33' W 075°41'2 3.9
2018-Feb-15 22:30N 39°33' W 075°39'2 4.4
2018-Feb-15 22:00N 39°33' W 075°36'2 4.7
2018-Feb-15 21:30N 39°34' W 075°33'2 4.9
2018-Feb-15 21:00N 39°36' W 075°34'3 6.8
2018-Feb-15 20:30N 39°39' W 075°33'4 7.2
2018-Feb-15 20:00N 39°43' W 075°31'3 6.6
2018-Feb-15 19:30N 39°46' W 075°29'3 5.8
2018-Feb-15 19:00N 39°48' W 075°26'2 4.8
2018-Feb-15 18:30N 39°49' W 075°24'0 0.5
2018-Feb-15 18:00N 39°49' W 075°23'0 0.0
2018-Feb-15 17:28N 39°49' W 075°23'0 0.0
2018-Feb-15 17:00N 39°49' W 075°23'0 0.0
2018-Feb-15 16:30N 39°49' W 075°23'0 0.0
2018-Feb-15 16:00N 39°49' W 075°23'0 0.0
2018-Feb-15 15:15N 39°49' W 075°23'0 0.0
2018-Feb-15 15:00N 39°49' W 075°23'0 0.0
2018-Feb-15 14:28N 39°49' W 075°23'0 0.0
2018-Feb-15 14:00N 39°49' W 075°23'0 0.0
2018-Feb-15 13:30N 39°49' W 075°23'0 0.0
2018-Feb-15 13:00N 39°49' W 075°23'0 0.0
2018-Feb-15 12:30N 39°49' W 075°23'0 0.0
2018-Feb-15 12:00N 39°49' W 075°23'0 0.0
2018-Feb-15 11:30N 39°49' W 075°23'0 0.0
2018-Feb-15 11:00N 39°49' W 075°23'0 0.0
2018-Feb-15 10:30N 39°49' W 075°23'0 0.0
2018-Feb-15 10:00N 39°49' W 075°23'0 0.0
2018-Feb-15 09:30N 39°49' W 075°23'0 0.0
2018-Feb-15 09:00N 39°49' W 075°23'0 0.0
2018-Feb-15 08:30N 39°49' W 075°23'0 0.0
2018-Feb-15 08:00N 39°49' W 075°23'0 0.0
2018-Feb-15 07:30N 39°49' W 075°23'0 0.0
2018-Feb-15 07:00N 39°49' W 075°23'0 0.0
2018-Feb-15 06:30N 39°49' W 075°23'0 0.0
2018-Feb-15 06:00N 39°49' W 075°23'0 0.0
2018-Feb-15 05:30N 39°49' W 075°23'0 0.0
2018-Feb-15 05:00N 39°49' W 075°23'0 0.0
2018-Feb-15 04:30N 39°49' W 075°23'0 0.0
2018-Feb-15 03:58N 39°49' W 075°23'0 0.0
2018-Feb-15 03:30N 39°49' W 075°23'0 0.0
2018-Feb-15 02:59N 39°49' W 075°23'0 0.0
2018-Feb-15 02:29N 39°49' W 075°23'0 0.0
2018-Feb-15 01:58N 39°49' W 075°23'0 0.0
2018-Feb-15 01:30N 39°49' W 075°23'0 0.0
2018-Feb-15 01:00N 39°49' W 075°23'0 0.0
2018-Feb-15 00:30N 39°49' W 075°23'0 0.0
2018-Feb-15 00:00N 39°49' W 075°23'0 0.0
2018-Feb-14 23:30N 39°49' W 075°23'0 0.0
2018-Feb-14 23:00N 39°49' W 075°23'0 0.0
2018-Feb-14 22:30N 39°49' W 075°23'0 0.0
2018-Feb-14 22:00N 39°49' W 075°23'0 0.0
2018-Feb-14 21:30N 39°49' W 075°23'0 0.0
2018-Feb-14 21:00N 39°49' W 075°23'0 0.0
2018-Feb-14 20:30N 39°49' W 075°23'0 0.0
2018-Feb-14 20:00N 39°49' W 075°23'0 0.0
2018-Feb-14 19:30N 39°49' W 075°23'0 0.0
2018-Feb-14 19:00N 39°49' W 075°23'0 0.0
2018-Feb-14 18:30N 39°49' W 075°23'0 0.0
2018-Feb-14 18:00N 39°49' W 075°23'0 0.0
2018-Feb-14 17:30N 39°49' W 075°23'0 0.0
2018-Feb-14 17:00N 39°49' W 075°23'0 0.0
2018-Feb-14 16:30N 39°49' W 075°23'0 0.0
2018-Feb-14 16:00N 39°49' W 075°23'0 0.0
2018-Feb-14 15:30N 39°49' W 075°23'0 0.0
2018-Feb-14 15:00N 39°49' W 075°23'0 0.0
2018-Feb-14 14:30N 39°49' W 075°23'0 0.0
2018-Feb-14 14:00N 39°49' W 075°23'0 0.0
2018-Feb-14 13:30N 39°49' W 075°23'0 0.0
2018-Feb-14 12:59N 39°49' W 075°23'0 0.0
2018-Feb-14 12:30N 39°49' W 075°23'0 0.0
2018-Feb-14 12:00N 39°49' W 075°23'0 0.0
2018-Feb-14 11:30N 39°49' W 075°23'0 0.0
2018-Feb-14 11:00N 39°49' W 075°23'0 0.0
2018-Feb-14 10:30N 39°49' W 075°23'0 0.0
2018-Feb-14 10:00N 39°49' W 075°23'0 0.0
2018-Feb-14 09:30N 39°49' W 075°23'0 0.0
2018-Feb-14 09:00N 39°49' W 075°23'0 0.0
2018-Feb-14 08:30N 39°49' W 075°23'0 0.0
2018-Feb-14 08:00N 39°49' W 075°23'0 0.0
2018-Feb-14 07:30N 39°49' W 075°23'0 0.0
2018-Feb-14 07:00N 39°49' W 075°23'0 0.0
2018-Feb-14 06:30N 39°49' W 075°23'0 0.0
2018-Feb-14 06:00N 39°49' W 075°23'0 0.0
2018-Feb-14 05:30N 39°49' W 075°23'0 0.0
2018-Feb-14 05:00N 39°49' W 075°23'0 0.0
2018-Feb-14 04:30N 39°49' W 075°23'0 0.0
2018-Feb-14 04:00N 39°49' W 075°23'0 0.0
2018-Feb-14 03:30N 39°49' W 075°23'0 0.0
2018-Feb-14 03:00N 39°49' W 075°23'0 0.0
2018-Feb-14 02:30N 39°49' W 075°23'0 0.0
2018-Feb-14 02:00N 39°49' W 075°23'0 0.0
2018-Feb-14 01:30N 39°49' W 075°23'0 0.0
2018-Feb-14 01:00N 39°49' W 075°23'0 0.0
2018-Feb-14 00:30N 39°49' W 075°23'0 0.0
2018-Feb-14 00:00N 39°49' W 075°23'0 0.0
2018-Feb-13 23:30N 39°49' W 075°23'0 0.0
2018-Feb-13 23:00N 39°49' W 075°23'0 0.0
2018-Feb-13 22:30N 39°49' W 075°23'0 0.0
2018-Feb-13 22:00N 39°49' W 075°23'0 0.6
2018-Feb-13 21:30N 39°49' W 075°24'0 0.7
2018-Feb-13 21:00N 39°49' W 075°24'0 0.0
2018-Feb-13 20:30N 39°49' W 075°24'0 0.0
2018-Feb-13 20:00N 39°49' W 075°24'0 0.0
2018-Feb-13 19:30N 39°49' W 075°24'0 0.0
2018-Feb-13 19:00N 39°49' W 075°24'0 0.0
2018-Feb-13 18:30N 39°49' W 075°24'0 0.0
2018-Feb-13 18:00N 39°49' W 075°24'0 0.0
2018-Feb-13 17:30N 39°49' W 075°24'0 0.0
2018-Feb-13 17:00N 39°49' W 075°24'0 0.1
2018-Feb-13 16:30N 39°49' W 075°24'0 0.0
2018-Feb-13 16:00N 39°49' W 075°24'0 0.0
2018-Feb-13 15:30N 39°49' W 075°24'0 0.1
2018-Feb-13 15:00N 39°49' W 075°24'0 0.0
2018-Feb-13 14:30N 39°49' W 075°24'0 0.1
2018-Feb-13 14:00N 39°49' W 075°24'0 0.0
2018-Feb-13 13:30N 39°49' W 075°24'0 0.0
2018-Feb-13 13:00N 39°49' W 075°24'0 0.0
2018-Feb-13 12:30N 39°49' W 075°24'0 0.0
2018-Feb-13 12:00N 39°49' W 075°24'0 0.0
2018-Feb-13 11:30N 39°49' W 075°24'0 0.1
2018-Feb-13 11:00N 39°49' W 075°24'0 0.1
2018-Feb-13 10:31N 39°49' W 075°24'0 0.8
2018-Feb-13 10:00N 39°49' W 075°24'0 0.0
2018-Feb-13 09:30N 39°49' W 075°24'0 0.0
2018-Feb-13 09:00N 39°49' W 075°24'0 0.0
2018-Feb-13 08:30N 39°49' W 075°24'0 0.0
2018-Feb-13 08:00N 39°49' W 075°24'0 0.0
2018-Feb-13 07:30N 39°49' W 075°24'0 0.0
2018-Feb-13 07:00N 39°49' W 075°24'0 0.0
2018-Feb-13 06:30N 39°49' W 075°24'0 0.1
2018-Feb-13 06:00N 39°49' W 075°24'0 0.1
2018-Feb-13 05:30N 39°49' W 075°24'0 0.1
2018-Feb-13 05:00N 39°49' W 075°24'0 0.0
2018-Feb-13 04:30N 39°49' W 075°24'0 0.1
2018-Feb-13 04:00N 39°49' W 075°24'0 0.1
2018-Feb-13 03:30N 39°49' W 075°24'0 0.0
2018-Feb-13 03:00N 39°49' W 075°24'0 0.0
2018-Feb-13 02:30N 39°49' W 075°24'0 0.1
2018-Feb-13 02:00N 39°49' W 075°24'0 0.1
2018-Feb-13 01:30N 39°49' W 075°24'0 0.0
2018-Feb-13 01:00N 39°49' W 075°24'0 0.0
2018-Feb-13 00:30N 39°49' W 075°24'0 0.0
2018-Feb-13 00:00N 39°49' W 075°24'0 0.0
2018-Feb-12 23:30N 39°49' W 075°24'0 0.0
2018-Feb-12 23:00N 39°49' W 075°24'0 0.0
2018-Feb-12 22:30N 39°49' W 075°24'0 0.0
2018-Feb-12 22:00N 39°49' W 075°24'0 0.0
2018-Feb-12 21:30N 39°49' W 075°24'0 0.0
2018-Feb-12 21:00N 39°49' W 075°24'0 0.0
2018-Feb-12 20:30N 39°49' W 075°24'0 0.0
2018-Feb-12 20:00N 39°49' W 075°24'0 0.0
2018-Feb-12 19:30N 39°49' W 075°24'0 0.0
2018-Feb-12 19:00N 39°49' W 075°24'0 0.0
2018-Feb-12 18:30N 39°49' W 075°24'0 0.0
2018-Feb-12 18:00N 39°49' W 075°24'0 0.0
2018-Feb-12 17:30N 39°49' W 075°24'0 0.0
2018-Feb-12 17:00N 39°49' W 075°24'0 0.0
2018-Feb-12 16:30N 39°49' W 075°24'0 0.0
2018-Feb-12 16:00N 39°49' W 075°24'0 0.0
2018-Feb-12 15:30N 39°49' W 075°24'0 0.0
2018-Feb-12 15:01N 39°49' W 075°24'0 0.0
2018-Feb-12 14:30N 39°49' W 075°24'0 0.0
2018-Feb-12 14:00N 39°49' W 075°24'0 0.0
2018-Feb-12 13:30N 39°49' W 075°24'0 0.0
2018-Feb-12 13:00N 39°49' W 075°24'0 0.0
2018-Feb-12 12:30N 39°49' W 075°24'0 0.0
2018-Feb-12 12:00N 39°49' W 075°24'0 0.1
2018-Feb-12 11:30N 39°49' W 075°24'0 0.0
2018-Feb-12 11:00N 39°49' W 075°24'0 0.0
2018-Feb-12 10:30N 39°49' W 075°24'0 0.1
2018-Feb-12 10:00N 39°49' W 075°24'0 0.0
2018-Feb-12 09:30N 39°49' W 075°24'0 0.0
2018-Feb-12 09:00N 39°49' W 075°24'0 0.0
2018-Feb-12 08:30N 39°49' W 075°24'0 0.1
2018-Feb-12 08:00N 39°49' W 075°24'0 0.0
2018-Feb-12 07:30N 39°49' W 075°24'0 0.1
2018-Feb-12 07:00N 39°49' W 075°24'0 0.0
2018-Feb-12 06:30N 39°49' W 075°24'0 0.0
2018-Feb-12 06:00N 39°49' W 075°24'0 0.0
2018-Feb-12 05:30N 39°49' W 075°24'0 0.0
2018-Feb-12 05:00N 39°49' W 075°24'0 0.1
2018-Feb-12 04:30N 39°49' W 075°24'0 0.1
2018-Feb-12 04:00N 39°49' W 075°24'0 0.1
2018-Feb-12 03:30N 39°49' W 075°24'0 0.1
2018-Feb-12 03:00N 39°49' W 075°24'0 0.0
2018-Feb-12 02:30N 39°49' W 075°24'0 0.0
2018-Feb-12 02:00N 39°49' W 075°24'0 0.0
2018-Feb-12 01:30N 39°49' W 075°24'0 0.1
2018-Feb-12 01:00N 39°49' W 075°24'0 0.1
2018-Feb-12 00:30N 39°49' W 075°24'0 0.0
2018-Feb-12 00:00N 39°49' W 075°24'0 0.1
2018-Feb-11 23:30N 39°49' W 075°24'0 0.0
2018-Feb-11 23:00N 39°49' W 075°24'0 0.1
2018-Feb-11 22:30N 39°49' W 075°24'0 0.1
2018-Feb-11 22:00N 39°49' W 075°24'0 0.0
2018-Feb-11 21:30N 39°49' W 075°24'0 0.1
2018-Feb-11 21:00N 39°49' W 075°24'0 0.0
2018-Feb-11 20:30N 39°49' W 075°24'0 0.0
2018-Feb-11 20:00N 39°49' W 075°24'0 0.0
2018-Feb-11 19:30N 39°49' W 075°24'0 0.1
2018-Feb-11 19:00N 39°49' W 075°24'0 0.0
2018-Feb-11 18:30N 39°49' W 075°24'0 0.1
2018-Feb-11 18:00N 39°49' W 075°24'0 0.0
2018-Feb-11 17:30N 39°49' W 075°24'0 0.0
2018-Feb-11 17:00N 39°49' W 075°24'0 0.1
2018-Feb-11 16:30N 39°49' W 075°24'0 0.0
2018-Feb-11 16:00N 39°49' W 075°24'0 0.0
2018-Feb-11 15:30N 39°49' W 075°24'0 0.0
2018-Feb-11 15:01N 39°49' W 075°24'0 0.0
2018-Feb-11 14:30N 39°49' W 075°24'0 0.0
2018-Feb-11 14:00N 39°49' W 075°24'0 0.0
2018-Feb-11 13:30N 39°49' W 075°24'0 0.0
2018-Feb-11 13:00N 39°49' W 075°24'0 0.0
2018-Feb-11 12:30N 39°49' W 075°24'0 0.0
2018-Feb-11 12:00N 39°49' W 075°24'0 0.0
2018-Feb-11 11:30N 39°49' W 075°24'0 0.0
2018-Feb-11 11:00N 39°49' W 075°24'0 0.0
2018-Feb-11 10:30N 39°49' W 075°24'0 0.0
2018-Feb-11 10:00N 39°49' W 075°24'0 0.0
2018-Feb-11 09:30N 39°49' W 075°24'0 0.1
2018-Feb-11 09:00N 39°49' W 075°24'0 0.0
2018-Feb-11 08:30N 39°49' W 075°24'0 0.0
2018-Feb-11 08:00N 39°49' W 075°24'0 0.0
2018-Feb-11 07:30N 39°49' W 075°24'0 0.1
2018-Feb-11 07:00N 39°49' W 075°24'0 0.0
2018-Feb-11 06:30N 39°49' W 075°24'0 0.1
2018-Feb-11 06:00N 39°49' W 075°24'0 0.0
2018-Feb-11 05:30N 39°49' W 075°24'0 0.1
2018-Feb-11 05:00N 39°49' W 075°24'0 0.1
2018-Feb-11 04:30N 39°49' W 075°24'0 0.1
2018-Feb-11 04:00N 39°49' W 075°24'0 0.1
2018-Feb-11 03:30N 39°49' W 075°24'0 0.0
2018-Feb-11 03:00N 39°49' W 075°24'0 0.1
2018-Feb-11 02:30N 39°49' W 075°24'0 0.0
2018-Feb-11 02:00N 39°49' W 075°24'0 0.0
2018-Feb-11 01:30N 39°49' W 075°24'0 0.0
2018-Feb-11 01:00N 39°49' W 075°24'0 0.0
2018-Feb-11 00:30N 39°49' W 075°24'0 0.0
2018-Feb-11 00:00N 39°49' W 075°24'0 0.0
2018-Feb-10 23:30N 39°49' W 075°24'0 0.0
2018-Feb-10 23:00N 39°49' W 075°24'0 0.0
2018-Feb-10 22:30N 39°49' W 075°24'0 0.0
2018-Feb-10 21:59N 39°49' W 075°24'0 0.0
2018-Feb-10 21:30N 39°49' W 075°24'0 0.0
2018-Feb-10 21:00N 39°49' W 075°24'0 0.0
2018-Feb-10 20:30N 39°49' W 075°24'0 0.1
2018-Feb-10 20:00N 39°49' W 075°24'0 0.1
2018-Feb-10 19:30N 39°49' W 075°24'0 0.0
2018-Feb-10 19:00N 39°49' W 075°24'0 0.0
2018-Feb-10 18:30N 39°49' W 075°24'0 0.0
2018-Feb-10 18:01N 39°49' W 075°24'0 0.1
2018-Feb-10 17:30N 39°49' W 075°24'0 0.1
2018-Feb-10 17:00N 39°49' W 075°24'0 0.1
2018-Feb-10 16:30N 39°49' W 075°24'0 0.0
2018-Feb-10 16:00N 39°49' W 075°24'0 0.0
2018-Feb-10 15:30N 39°49' W 075°24'0 0.1
2018-Feb-10 15:00N 39°49' W 075°24'0 0.0
2018-Feb-10 14:30N 39°49' W 075°24'0 0.1
2018-Feb-10 14:00N 39°49' W 075°24'0 0.0
2018-Feb-10 13:30N 39°49' W 075°24'0 0.0
2018-Feb-10 13:00N 39°49' W 075°24'0 0.0
2018-Feb-10 12:30N 39°49' W 075°24'0 0.0
2018-Feb-10 12:00N 39°49' W 075°24'0 0.1
2018-Feb-10 11:30N 39°49' W 075°24'0 0.1
2018-Feb-10 11:00N 39°49' W 075°24'0 0.0
2018-Feb-10 10:30N 39°49' W 075°24'0 0.0
2018-Feb-10 10:00N 39°49' W 075°24'0 0.0
2018-Feb-10 09:30N 39°49' W 075°24'0 0.0
2018-Feb-10 09:00N 39°49' W 075°24'0 0.1
2018-Feb-10 08:30N 39°49' W 075°24'0 0.0
2018-Feb-10 08:00N 39°49' W 075°24'0 0.0
2018-Feb-10 07:30N 39°49' W 075°24'0 0.0
2018-Feb-10 06:58N 39°49' W 075°24'0 0.1
2018-Feb-10 06:30N 39°49' W 075°24'0 0.0
2018-Feb-10 06:00N 39°49' W 075°24'0 0.0
2018-Feb-10 05:30N 39°49' W 075°24'0 0.0
2018-Feb-10 05:00N 39°49' W 075°24'0 0.1
2018-Feb-10 04:30N 39°49' W 075°24'0 0.1
2018-Feb-10 04:00N 39°49' W 075°24'0 0.1
2018-Feb-10 03:30N 39°49' W 075°24'0 0.1
2018-Feb-10 03:00N 39°49' W 075°24'0 0.0
2018-Feb-10 02:30N 39°49' W 075°24'0 0.0
2018-Feb-10 02:00N 39°49' W 075°24'0 0.0
2018-Feb-10 01:30N 39°49' W 075°24'0 0.0
2018-Feb-10 01:00N 39°49' W 075°24'0 0.1
2018-Feb-10 00:30N 39°49' W 075°24'0 0.1
2018-Feb-10 00:00N 39°49' W 075°24'0 0.1
2018-Feb-09 23:30N 39°49' W 075°24'0 0.0
2018-Feb-09 23:00N 39°49' W 075°24'0 0.0
2018-Feb-09 22:46N 39°49' W 075°24'0 0.0
2018-Feb-09 18:00N 39°49' W 075°24'0 0.0
2018-Feb-09 17:30N 39°49' W 075°24'0 0.0
2018-Feb-09 16:30N 39°49' W 075°24'0 0.0
2018-Feb-09 13:30N 39°49' W 075°24'0 0.0
2018-Feb-09 13:00N 39°49' W 075°24'0 0.0
2018-Feb-09 12:30N 39°49' W 075°24'0 0.0
2018-Feb-09 11:30N 39°49' W 075°24'0 0.1
2018-Feb-09 08:30N 39°49' W 075°24'0 0.0
2018-Feb-09 07:30N 39°49' W 075°24'0 0.0
2018-Feb-09 06:30N 39°49' W 075°24'0 0.0
2018-Feb-09 06:00N 39°49' W 075°24'0 0.0
2018-Feb-09 05:00N 39°49' W 075°24'0 0.0
2018-Feb-09 04:00N 39°49' W 075°24'0 0.0
2018-Feb-09 03:00N 39°49' W 075°24'0 0.0
2018-Feb-09 02:30N 39°49' W 075°24'0 0.0
2018-Feb-09 01:00N 39°49' W 075°24'0 0.0
2018-Feb-09 00:30N 39°49' W 075°24'0 0.0
2018-Feb-09 00:00N 39°49' W 075°24'0 0.0
2018-Feb-08 23:30N 39°49' W 075°24'0 0.0
2018-Feb-08 23:00N 39°49' W 075°24'0 0.0
2018-Feb-08 22:00N 39°49' W 075°24'0 0.0
2018-Feb-08 21:30N 39°49' W 075°24'0 0.1
2018-Feb-08 21:00N 39°49' W 075°24'0 0.0
2018-Feb-08 19:30N 39°49' W 075°24'0 0.0
2018-Feb-08 19:00N 39°49' W 075°24'0 0.0
2018-Feb-08 18:30N 39°49' W 075°24'0 0.1
2018-Feb-08 18:00N 39°49' W 075°24'0 0.0
2018-Feb-08 06:00N 39°49' W 075°24'0 0.0
2018-Feb-08 05:00N 39°49' W 075°24'0 0.0
2018-Feb-08 04:30N 39°49' W 075°24'0 0.1
2018-Feb-08 04:00N 39°49' W 075°24'0 0.0
2018-Feb-08 01:30N 39°49' W 075°24'0 0.0
2018-Feb-08 01:00N 39°49' W 075°24'0 0.0
2018-Feb-08 00:30N 39°49' W 075°24'0 0.1
2018-Feb-08 00:00N 39°49' W 075°24'0 0.0
2018-Feb-07 23:30N 39°49' W 075°24'0 0.0
2018-Feb-07 23:00N 39°49' W 075°24'0 0.1
2018-Feb-07 22:30N 39°49' W 075°24'  
Track history (hours):
 
Tides and Currents Weather Stations Pressure Air Temp Water Temp Dewpoint Dewpoint Depression Visibility Wind Speed Wind Dir Waves Ship Positions

Hand 'n' Hand

Owner: HAND, DONALD E, PORTLAND, OR. More information available from US FCC via Universal Licensing System.

Last reported at 2018-Feb-17 22:22 UTC. Time now 2018-Feb-20 01:35 UTC.
Position N 36°43' W 076°14'.

Length 160 m; draft 0.23 m.

Type: Other ship. MMSI: 3011.

Date/timePositionNaut miles runAvg speedWind from/ knotsBaromVisibWave heightAir tempDewpointWater temp
2018-Feb-17 22:22N 36°43' W 076°14'1 2.3
2018-Feb-17 22:01N 36°43' W 076°15'1 0.5
2018-Feb-17 20:35N 36°44' W 076°15'0 1.2
2018-Feb-17 20:19N 36°44' W 076°16'2 3.1
2018-Feb-17 19:46N 36°44' W 076°18'1 3.0
2018-Feb-17 19:30N 36°45' W 076°18'1 1.4
2018-Feb-17 19:00N 36°46' W 076°18'1 2.3
2018-Feb-17 18:30N 36°47' W 076°19'2 4.2
2018-Feb-17 18:00N 36°49' W 076°17'2 5.0
2018-Feb-17 17:30N 36°51' W 076°18'2 3.1
2018-Feb-17 17:00N 36°52' W 076°20'0 0.9
2018-Feb-17 16:30N 36°52' W 076°20'0 0.2
2018-Feb-17 15:48N 36°52' W 076°20'0 0.0
2018-Feb-17 14:48N 36°52' W 076°20'0 0.0
2018-Feb-17 14:28N 36°52' W 076°20'117 4.2
2018-Feb-16 10:56N 38°49' W 076°26'2 5.4
2018-Feb-16 10:30N 38°51' W 076°25'3 5.2
2018-Feb-16 10:00N 38°53' W 076°24'3 5.2
2018-Feb-16 09:25N 38°56' W 076°24'33 5.7
2018-Feb-16 03:36N 39°25' W 076°02'1 5.4
2018-Feb-16 03:28N 39°26' W 076°01'3 5.2
2018-Feb-16 02:59N 39°27' W 075°59'2 4.9
2018-Feb-16 02:29N 39°29' W 075°57'2 4.5
2018-Feb-16 02:00N 39°30' W 075°54'2 4.2
2018-Feb-16 01:30N 39°32' W 075°52'8 3.3
2018-Feb-15 23:06N 39°33' W 075°42'0 3.5
2018-Feb-15 23:00N 39°33' W 075°41'2 3.9
2018-Feb-15 22:30N 39°33' W 075°39'2 4.4
2018-Feb-15 22:00N 39°33' W 075°36'2 4.7
2018-Feb-15 21:30N 39°34' W 075°33'2 4.9
2018-Feb-15 21:00N 39°36' W 075°34'3 6.8
2018-Feb-15 20:30N 39°39' W 075°33'4 7.2
2018-Feb-15 20:00N 39°43' W 075°31'3 6.6
2018-Feb-15 19:30N 39°46' W 075°29'3 5.8
2018-Feb-15 19:00N 39°48' W 075°26'2 4.8
2018-Feb-15 18:30N 39°49' W 075°24'0 0.5
2018-Feb-15 18:00N 39°49' W 075°23'0 0.0
2018-Feb-15 17:28N 39°49' W 075°23'0 0.0
2018-Feb-15 17:00N 39°49' W 075°23'0 0.0
2018-Feb-15 16:30N 39°49' W 075°23'0 0.0
2018-Feb-15 16:00N 39°49' W 075°23'0 0.0
2018-Feb-15 15:15N 39°49' W 075°23'0 0.0
2018-Feb-15 15:00N 39°49' W 075°23'0 0.0
2018-Feb-15 14:28N 39°49' W 075°23'0 0.0
2018-Feb-15 14:00N 39°49' W 075°23'0 0.0
2018-Feb-15 13:30N 39°49' W 075°23'0 0.0
2018-Feb-15 13:00N 39°49' W 075°23'0 0.0
2018-Feb-15 12:30N 39°49' W 075°23'0 0.0
2018-Feb-15 12:00N 39°49' W 075°23'0 0.0
2018-Feb-15 11:30N 39°49' W 075°23'0 0.0
2018-Feb-15 11:00N 39°49' W 075°23'0 0.0
2018-Feb-15 10:30N 39°49' W 075°23'0 0.0
2018-Feb-15 10:00N 39°49' W 075°23'0 0.0
2018-Feb-15 09:30N 39°49' W 075°23'0 0.0
2018-Feb-15 09:00N 39°49' W 075°23'0 0.0
2018-Feb-15 08:30N 39°49' W 075°23'0 0.0
2018-Feb-15 08:00N 39°49' W 075°23'0 0.0
2018-Feb-15 07:30N 39°49' W 075°23'0 0.0
2018-Feb-15 07:00N 39°49' W 075°23'0 0.0
2018-Feb-15 06:30N 39°49' W 075°23'0 0.0
2018-Feb-15 06:00N 39°49' W 075°23'0 0.0
2018-Feb-15 05:30N 39°49' W 075°23'0 0.0
2018-Feb-15 05:00N 39°49' W 075°23'0 0.0
2018-Feb-15 04:30N 39°49' W 075°23'0 0.0
2018-Feb-15 03:58N 39°49' W 075°23'0 0.0
2018-Feb-15 03:30N 39°49' W 075°23'0 0.0
2018-Feb-15 02:59N 39°49' W 075°23'0 0.0
2018-Feb-15 02:29N 39°49' W 075°23'0 0.0
2018-Feb-15 01:58N 39°49' W 075°23'0 0.0
2018-Feb-15 01:30N 39°49' W 075°23'0 0.0
2018-Feb-15 01:00N 39°49' W 075°23'0 0.0
2018-Feb-15 00:30N 39°49' W 075°23'0 0.0
2018-Feb-15 00:00N 39°49' W 075°23'0 0.0
2018-Feb-14 23:30N 39°49' W 075°23'0 0.0
2018-Feb-14 23:00N 39°49' W 075°23'0 0.0
2018-Feb-14 22:30N 39°49' W 075°23'0 0.0
2018-Feb-14 22:00N 39°49' W 075°23'0 0.0
2018-Feb-14 21:30N 39°49' W 075°23'0 0.0
2018-Feb-14 21:00N 39°49' W 075°23'0 0.0
2018-Feb-14 20:30N 39°49' W 075°23'0 0.0
2018-Feb-14 20:00N 39°49' W 075°23'0 0.0
2018-Feb-14 19:30N 39°49' W 075°23'0 0.0
2018-Feb-14 19:00N 39°49' W 075°23'0 0.0
2018-Feb-14 18:30N 39°49' W 075°23'0 0.0
2018-Feb-14 18:00N 39°49' W 075°23'0 0.0
2018-Feb-14 17:30N 39°49' W 075°23'0 0.0
2018-Feb-14 17:00N 39°49' W 075°23'0 0.0
2018-Feb-14 16:30N 39°49' W 075°23'0 0.0
2018-Feb-14 16:00N 39°49' W 075°23'0 0.0
2018-Feb-14 15:30N 39°49' W 075°23'0 0.0
2018-Feb-14 15:00N 39°49' W 075°23'0 0.0
2018-Feb-14 14:30N 39°49' W 075°23'0 0.0
2018-Feb-14 14:00N 39°49' W 075°23'0 0.0
2018-Feb-14 13:30N 39°49' W 075°23'0 0.0
2018-Feb-14 12:59N 39°49' W 075°23'0 0.0
2018-Feb-14 12:30N 39°49' W 075°23'0 0.0
2018-Feb-14 12:00N 39°49' W 075°23'0 0.0
2018-Feb-14 11:30N 39°49' W 075°23'0 0.0
2018-Feb-14 11:00N 39°49' W 075°23'0 0.0
2018-Feb-14 10:30N 39°49' W 075°23'0 0.0
2018-Feb-14 10:00N 39°49' W 075°23'0 0.0
2018-Feb-14 09:30N 39°49' W 075°23'0 0.0
2018-Feb-14 09:00N 39°49' W 075°23'0 0.0
2018-Feb-14 08:30N 39°49' W 075°23'0 0.0
2018-Feb-14 08:00N 39°49' W 075°23'0 0.0
2018-Feb-14 07:30N 39°49' W 075°23'0 0.0
2018-Feb-14 07:00N 39°49' W 075°23'0 0.0
2018-Feb-14 06:30N 39°49' W 075°23'0 0.0
2018-Feb-14 06:00N 39°49' W 075°23'0 0.0
2018-Feb-14 05:30N 39°49' W 075°23'0 0.0
2018-Feb-14 05:00N 39°49' W 075°23'0 0.0
2018-Feb-14 04:30N 39°49' W 075°23'0 0.0
2018-Feb-14 04:00N 39°49' W 075°23'0 0.0
2018-Feb-14 03:30N 39°49' W 075°23'0 0.0
2018-Feb-14 03:00N 39°49' W 075°23'0 0.0
2018-Feb-14 02:30N 39°49' W 075°23'0 0.0
2018-Feb-14 02:00N 39°49' W 075°23'0 0.0
2018-Feb-14 01:30N 39°49' W 075°23'0 0.0
2018-Feb-14 01:00N 39°49' W 075°23'0 0.0
2018-Feb-14 00:30N 39°49' W 075°23'0 0.0
2018-Feb-14 00:00N 39°49' W 075°23'0 0.0
2018-Feb-13 23:30N 39°49' W 075°23'0 0.0
2018-Feb-13 23:00N 39°49' W 075°23'0 0.0
2018-Feb-13 22:30N 39°49' W 075°23'0 0.0
2018-Feb-13 22:00N 39°49' W 075°23'0 0.6
2018-Feb-13 21:30N 39°49' W 075°24'0 0.7
2018-Feb-13 21:00N 39°49' W 075°24'0 0.0
2018-Feb-13 20:30N 39°49' W 075°24'0 0.0
2018-Feb-13 20:00N 39°49' W 075°24'0 0.0
2018-Feb-13 19:30N 39°49' W 075°24'0 0.0
2018-Feb-13 19:00N 39°49' W 075°24'0 0.0
2018-Feb-13 18:30N 39°49' W 075°24'0 0.0
2018-Feb-13 18:00N 39°49' W 075°24'0 0.0
2018-Feb-13 17:30N 39°49' W 075°24'0 0.0
2018-Feb-13 17:00N 39°49' W 075°24'0 0.1
2018-Feb-13 16:30N 39°49' W 075°24'0 0.0
2018-Feb-13 16:00N 39°49' W 075°24'0 0.0
2018-Feb-13 15:30N 39°49' W 075°24'0 0.1
2018-Feb-13 15:00N 39°49' W 075°24'0 0.0
2018-Feb-13 14:30N 39°49' W 075°24'0 0.1
2018-Feb-13 14:00N 39°49' W 075°24'0 0.0
2018-Feb-13 13:30N 39°49' W 075°24'0 0.0
2018-Feb-13 13:00N 39°49' W 075°24'0 0.0
2018-Feb-13 12:30N 39°49' W 075°24'0 0.0
2018-Feb-13 12:00N 39°49' W 075°24'0 0.0
2018-Feb-13 11:30N 39°49' W 075°24'0 0.1
2018-Feb-13 11:00N 39°49' W 075°24'0 0.1
2018-Feb-13 10:31N 39°49' W 075°24'0 0.8
2018-Feb-13 10:00N 39°49' W 075°24'0 0.0
2018-Feb-13 09:30N 39°49' W 075°24'0 0.0
2018-Feb-13 09:00N 39°49' W 075°24'0 0.0
2018-Feb-13 08:30N 39°49' W 075°24'0 0.0
2018-Feb-13 08:00N 39°49' W 075°24'0 0.0
2018-Feb-13 07:30N 39°49' W 075°24'0 0.0
2018-Feb-13 07:00N 39°49' W 075°24'0 0.0
2018-Feb-13 06:30N 39°49' W 075°24'0 0.1
2018-Feb-13 06:00N 39°49' W 075°24'0 0.1
2018-Feb-13 05:30N 39°49' W 075°24'0 0.1
2018-Feb-13 05:00N 39°49' W 075°24'0 0.0
2018-Feb-13 04:30N 39°49' W 075°24'0 0.1
2018-Feb-13 04:00N 39°49' W 075°24'0 0.1
2018-Feb-13 03:30N 39°49' W 075°24'0 0.0
2018-Feb-13 03:00N 39°49' W 075°24'0 0.0
2018-Feb-13 02:30N 39°49' W 075°24'0 0.1
2018-Feb-13 02:00N 39°49' W 075°24'0 0.1
2018-Feb-13 01:30N 39°49' W 075°24'0 0.0
2018-Feb-13 01:00N 39°49' W 075°24'0 0.0
2018-Feb-13 00:30N 39°49' W 075°24'0 0.0
2018-Feb-13 00:00N 39°49' W 075°24'0 0.0
2018-Feb-12 23:30N 39°49' W 075°24'0 0.0
2018-Feb-12 23:00N 39°49' W 075°24'0 0.0
2018-Feb-12 22:30N 39°49' W 075°24'0 0.0
2018-Feb-12 22:00N 39°49' W 075°24'0 0.0
2018-Feb-12 21:30N 39°49' W 075°24'0 0.0
2018-Feb-12 21:00N 39°49' W 075°24'0 0.0
2018-Feb-12 20:30N 39°49' W 075°24'0 0.0
2018-Feb-12 20:00N 39°49' W 075°24'0 0.0
2018-Feb-12 19:30N 39°49' W 075°24'0 0.0
2018-Feb-12 19:00N 39°49' W 075°24'0 0.0
2018-Feb-12 18:30N 39°49' W 075°24'0 0.0
2018-Feb-12 18:00N 39°49' W 075°24'0 0.0
2018-Feb-12 17:30N 39°49' W 075°24'0 0.0
2018-Feb-12 17:00N 39°49' W 075°24'0 0.0
2018-Feb-12 16:30N 39°49' W 075°24'0 0.0
2018-Feb-12 16:00N 39°49' W 075°24'0 0.0
2018-Feb-12 15:30N 39°49' W 075°24'0 0.0
2018-Feb-12 15:01N 39°49' W 075°24'0 0.0
2018-Feb-12 14:30N 39°49' W 075°24'0 0.0
2018-Feb-12 14:00N 39°49' W 075°24'0 0.0
2018-Feb-12 13:30N 39°49' W 075°24'0 0.0
2018-Feb-12 13:00N 39°49' W 075°24'0 0.0
2018-Feb-12 12:30N 39°49' W 075°24'0 0.0
2018-Feb-12 12:00N 39°49' W 075°24'0 0.1
2018-Feb-12 11:30N 39°49' W 075°24'0 0.0
2018-Feb-12 11:00N 39°49' W 075°24'0 0.0
2018-Feb-12 10:30N 39°49' W 075°24'0 0.1
2018-Feb-12 10:00N 39°49' W 075°24'0 0.0
2018-Feb-12 09:30N 39°49' W 075°24'0 0.0
2018-Feb-12 09:00N 39°49' W 075°24'0 0.0
2018-Feb-12 08:30N 39°49' W 075°24'0 0.1
2018-Feb-12 08:00N 39°49' W 075°24'0 0.0
2018-Feb-12 07:30N 39°49' W 075°24'0 0.1
2018-Feb-12 07:00N 39°49' W 075°24'0 0.0
2018-Feb-12 06:30N 39°49' W 075°24'0 0.0
2018-Feb-12 06:00N 39°49' W 075°24'0 0.0
2018-Feb-12 05:30N 39°49' W 075°24'0 0.0
2018-Feb-12 05:00N 39°49' W 075°24'0 0.1
2018-Feb-12 04:30N 39°49' W 075°24'0 0.1
2018-Feb-12 04:00N 39°49' W 075°24'0 0.1
2018-Feb-12 03:30N 39°49' W 075°24'0 0.1
2018-Feb-12 03:00N 39°49' W 075°24'0 0.0
2018-Feb-12 02:30N 39°49' W 075°24'0 0.0
2018-Feb-12 02:00N 39°49' W 075°24'0 0.0
2018-Feb-12 01:30N 39°49' W 075°24'0 0.1
2018-Feb-12 01:00N 39°49' W 075°24'0 0.1
2018-Feb-12 00:30N 39°49' W 075°24'0 0.0
2018-Feb-12 00:00N 39°49' W 075°24'0 0.1
2018-Feb-11 23:30N 39°49' W 075°24'0 0.0
2018-Feb-11 23:00N 39°49' W 075°24'0 0.1
2018-Feb-11 22:30N 39°49' W 075°24'0 0.1
2018-Feb-11 22:00N 39°49' W 075°24'0 0.0
2018-Feb-11 21:30N 39°49' W 075°24'0 0.1
2018-Feb-11 21:00N 39°49' W 075°24'0 0.0
2018-Feb-11 20:30N 39°49' W 075°24'0 0.0
2018-Feb-11 20:00N 39°49' W 075°24'0 0.0
2018-Feb-11 19:30N 39°49' W 075°24'0 0.1
2018-Feb-11 19:00N 39°49' W 075°24'0 0.0
2018-Feb-11 18:30N 39°49' W 075°24'0 0.1
2018-Feb-11 18:00N 39°49' W 075°24'0 0.0
2018-Feb-11 17:30N 39°49' W 075°24'0 0.0
2018-Feb-11 17:00N 39°49' W 075°24'0 0.1
2018-Feb-11 16:30N 39°49' W 075°24'0 0.0
2018-Feb-11 16:00N 39°49' W 075°24'0 0.0
2018-Feb-11 15:30N 39°49' W 075°24'0 0.0
2018-Feb-11 15:01N 39°49' W 075°24'0 0.0
2018-Feb-11 14:30N 39°49' W 075°24'0 0.0
2018-Feb-11 14:00N 39°49' W 075°24'0 0.0
2018-Feb-11 13:30N 39°49' W 075°24'0 0.0
2018-Feb-11 13:00N 39°49' W 075°24'0 0.0
2018-Feb-11 12:30N 39°49' W 075°24'0 0.0
2018-Feb-11 12:00N 39°49' W 075°24'0 0.0
2018-Feb-11 11:30N 39°49' W 075°24'0 0.0
2018-Feb-11 11:00N 39°49' W 075°24'0 0.0
2018-Feb-11 10:30N 39°49' W 075°24'0 0.0
2018-Feb-11 10:00N 39°49' W 075°24'0 0.0
2018-Feb-11 09:30N 39°49' W 075°24'0 0.1
2018-Feb-11 09:00N 39°49' W 075°24'0 0.0
2018-Feb-11 08:30N 39°49' W 075°24'0 0.0
2018-Feb-11 08:00N 39°49' W 075°24'0 0.0
2018-Feb-11 07:30N 39°49' W 075°24'0 0.1
2018-Feb-11 07:00N 39°49' W 075°24'0 0.0
2018-Feb-11 06:30N 39°49' W 075°24'0 0.1
2018-Feb-11 06:00N 39°49' W 075°24'0 0.0
2018-Feb-11 05:30N 39°49' W 075°24'0 0.1
2018-Feb-11 05:00N 39°49' W 075°24'0 0.1
2018-Feb-11 04:30N 39°49' W 075°24'0 0.1
2018-Feb-11 04:00N 39°49' W 075°24'0 0.1
2018-Feb-11 03:30N 39°49' W 075°24'0 0.0
2018-Feb-11 03:00N 39°49' W 075°24'0 0.1
2018-Feb-11 02:30N 39°49' W 075°24'0 0.0
2018-Feb-11 02:00N 39°49' W 075°24'0 0.0
2018-Feb-11 01:30N 39°49' W 075°24'0 0.0
2018-Feb-11 01:00N 39°49' W 075°24'0 0.0
2018-Feb-11 00:30N 39°49' W 075°24'0 0.0
2018-Feb-11 00:00N 39°49' W 075°24'0 0.0
2018-Feb-10 23:30N 39°49' W 075°24'0 0.0
2018-Feb-10 23:00N 39°49' W 075°24'0 0.0
2018-Feb-10 22:30N 39°49' W 075°24'0 0.0
2018-Feb-10 21:59N 39°49' W 075°24'0 0.0
2018-Feb-10 21:30N 39°49' W 075°24'0 0.0
2018-Feb-10 21:00N 39°49' W 075°24'0 0.0
2018-Feb-10 20:30N 39°49' W 075°24'0 0.1
2018-Feb-10 20:00N 39°49' W 075°24'0 0.1
2018-Feb-10 19:30N 39°49' W 075°24'0 0.0
2018-Feb-10 19:00N 39°49' W 075°24'0 0.0
2018-Feb-10 18:30N 39°49' W 075°24'0 0.0
2018-Feb-10 18:01N 39°49' W 075°24'0 0.1
2018-Feb-10 17:30N 39°49' W 075°24'0 0.1
2018-Feb-10 17:00N 39°49' W 075°24'0 0.1
2018-Feb-10 16:30N 39°49' W 075°24'0 0.0
2018-Feb-10 16:00N 39°49' W 075°24'0 0.0
2018-Feb-10 15:30N 39°49' W 075°24'0 0.1
2018-Feb-10 15:00N 39°49' W 075°24'0 0.0
2018-Feb-10 14:30N 39°49' W 075°24'0 0.1
2018-Feb-10 14:00N 39°49' W 075°24'0 0.0
2018-Feb-10 13:30N 39°49' W 075°24'0 0.0
2018-Feb-10 13:00N 39°49' W 075°24'0 0.0
2018-Feb-10 12:30N 39°49' W 075°24'0 0.0
2018-Feb-10 12:00N 39°49' W 075°24'0 0.1
2018-Feb-10 11:30N 39°49' W 075°24'0 0.1
2018-Feb-10 11:00N 39°49' W 075°24'0 0.0
2018-Feb-10 10:30N 39°49' W 075°24'0 0.0
2018-Feb-10 10:00N 39°49' W 075°24'0 0.0
2018-Feb-10 09:30N 39°49' W 075°24'0 0.0
2018-Feb-10 09:00N 39°49' W 075°24'0 0.1
2018-Feb-10 08:30N 39°49' W 075°24'0 0.0
2018-Feb-10 08:00N 39°49' W 075°24'0 0.0
2018-Feb-10 07:30N 39°49' W 075°24'0 0.0
2018-Feb-10 06:58N 39°49' W 075°24'0 0.1
2018-Feb-10 06:30N 39°49' W 075°24'0 0.0
2018-Feb-10 06:00N 39°49' W 075°24'0 0.0
2018-Feb-10 05:30N 39°49' W 075°24'0 0.0
2018-Feb-10 05:00N 39°49' W 075°24'0 0.1
2018-Feb-10 04:30N 39°49' W 075°24'0 0.1
2018-Feb-10 04:00N 39°49' W 075°24'0 0.1
2018-Feb-10 03:30N 39°49' W 075°24'0 0.1
2018-Feb-10 03:00N 39°49' W 075°24'0 0.0
2018-Feb-10 02:30N 39°49' W 075°24'0 0.0
2018-Feb-10 02:00N 39°49' W 075°24'0 0.0
2018-Feb-10 01:30N 39°49' W 075°24'0 0.0
2018-Feb-10 01:00N 39°49' W 075°24'0 0.1
2018-Feb-10 00:30N 39°49' W 075°24'0 0.1
2018-Feb-10 00:00N 39°49' W 075°24'0 0.1
2018-Feb-09 23:30N 39°49' W 075°24'0 0.0
2018-Feb-09 23:00N 39°49' W 075°24'0 0.0
2018-Feb-09 22:46N 39°49' W 075°24'0 0.0
2018-Feb-09 18:00N 39°49' W 075°24'0 0.0
2018-Feb-09 17:30N 39°49' W 075°24'0 0.0
2018-Feb-09 16:30N 39°49' W 075°24'0 0.0
2018-Feb-09 13:30N 39°49' W 075°24'0 0.0
2018-Feb-09 13:00N 39°49' W 075°24'0 0.0
2018-Feb-09 12:30N 39°49' W 075°24'0 0.0
2018-Feb-09 11:30N 39°49' W 075°24'0 0.1
2018-Feb-09 08:30N 39°49' W 075°24'0 0.0
2018-Feb-09 07:30N 39°49' W 075°24'0 0.0
2018-Feb-09 06:30N 39°49' W 075°24'0 0.0
2018-Feb-09 06:00N 39°49' W 075°24'0 0.0
2018-Feb-09 05:00N 39°49' W 075°24'0 0.0
2018-Feb-09 04:00N 39°49' W 075°24'0 0.0
2018-Feb-09 03:00N 39°49' W 075°24'0 0.0
2018-Feb-09 02:30N 39°49' W 075°24'0 0.0
2018-Feb-09 01:00N 39°49' W 075°24'0 0.0
2018-Feb-09 00:30N 39°49' W 075°24'0 0.0
2018-Feb-09 00:00N 39°49' W 075°24'0 0.0
2018-Feb-08 23:30N 39°49' W 075°24'0 0.0
2018-Feb-08 23:00N 39°49' W 075°24'0 0.0
2018-Feb-08 22:00N 39°49' W 075°24'0 0.0
2018-Feb-08 21:30N 39°49' W 075°24'0 0.1
2018-Feb-08 21:00N 39°49' W 075°24'0 0.0
2018-Feb-08 19:30N 39°49' W 075°24'0 0.0
2018-Feb-08 19:00N 39°49' W 075°24'0 0.0
2018-Feb-08 18:30N 39°49' W 075°24'0 0.1
2018-Feb-08 18:00N 39°49' W 075°24'0 0.0
2018-Feb-08 06:00N 39°49' W 075°24'0 0.0
2018-Feb-08 05:00N 39°49' W 075°24'0 0.0
2018-Feb-08 04:30N 39°49' W 075°24'0 0.1
2018-Feb-08 04:00N 39°49' W 075°24'0 0.0
2018-Feb-08 01:30N 39°49' W 075°24'0 0.0
2018-Feb-08 01:00N 39°49' W 075°24'0 0.0
2018-Feb-08 00:30N 39°49' W 075°24'0 0.1
2018-Feb-08 00:00N 39°49' W 075°24'0 0.0
2018-Feb-07 23:30N 39°49' W 075°24'0 0.0
2018-Feb-07 23:00N 39°49' W 075°24'0 0.1
2018-Feb-07 22:30N 39°49' W 075°24'  

Dump ship's entire track history